CheckWX is a tool to help pilots better visualize weather data.  It is not intended as a substitute for an official pre-flight weather briefing.

02:24:20 UTC

KNDZ METAR
Whiting Field NAS South Airport
Milton, Florida, USA
Current

28 mins ago

KNDZ 200156Z 00000KT 10SM -RA SCT032 SCT100 BKN120 OVC250 25/24 A3002 RMK AO2 SLP148 T2 SET P0001 T02500244 $
Observed
Aug-20 @ 01:56 UTC
Visibility
10 SM
Flight Rules
VFR
Conditions
Light Rain
Cloud Levels
  • Scattered at 3,200' AGL
  • Scattered at 10,000' AGL
  • Broken at 12,000' AGL
  • Overcast at 25,000' AGL
Temperature
25°C / 77°F
Dewpoint
24°C / 75°F
Humidity
94%
Altimeter
30.02" Hg
Pressure
1016.62 hPa
Current Rain
0.01"
Previous

1 hour ago

KNDZ 200056Z 20005KT 10SM -RA SCT018 BKN070 BKN110 OVC250 26/24 A3002 RMK AO2 RAB46 TSB13E32 SLP149 T1 SET P0000 T02610239 $
Observed
Aug-20 @ 00:56 UTC
Wind
  • 200° at 5 KTS
Visibility
10 SM
Flight Rules
VFR
Conditions
Light Rain
Cloud Levels
  • Scattered at 1,800' AGL
  • Broken at 7,000' AGL
  • Broken at 11,000' AGL
  • Overcast at 25,000' AGL
Temperature
26°C / 79°F
Dewpoint
24°C / 75°F
Humidity
89%
Altimeter
30.02" Hg
Pressure
1016.62 hPa
Current Rain
0.01"
Previous

2 hours ago

KNDZ 200032Z 20004KT 10SM SCT019 BKN070 OVC110 26/24 A3003 RMK AO2 TSB13E32 OCNL LTGIC DSNT S CB S T1 SET T02560239 $
Observed
Aug-20 @ 00:32 UTC
Wind
  • 200° at 4 KTS
Visibility
10 SM
Flight Rules
VFR
Cloud Levels
  • Scattered at 1,900' AGL
  • Broken at 7,000' AGL
  • Overcast at 11,000' AGL
Temperature
26°C / 79°F
Dewpoint
24°C / 75°F
Humidity
89%
Altimeter
30.03" Hg
Pressure
1016.92 hPa